Time;durP1;ratioP1;P1;durP2;ratioP2;P2;SDS_P1;SDS_P2;PMS_P1;PMS_P2;Temp;Humidity;BMP_temperature;BMP_pressure;BME280_temperature;BME280_humidity;BME280_pressure;Samples;Min_cycle;Max_cycle;Signal;HPM_P1;HPM_P2
2024/01/28 00:00:45;;;;;;;37.90;16.88;;;;;;;;;;5105293;28;20043;-55
2024/01/28 00:03:12;;;;;;;33.33;16.77;;;;;;;;;;5100250;28;20216;-58
2024/01/28 00:05:39;;;;;;;41.47;17.50;;;;;;;;;;5103126;28;20034;-58
2024/01/28 00:08:07;;;;;;;39.15;16.33;;;;;;;;;;5105320;28;20280;-54
2024/01/28 00:10:34;;;;;;;40.35;16.10;;;;;;;;;;5105295;28;20039;-58
2024/01/28 00:13:00;;;;;;;62.78;18.98;;;;;;;;;;5105258;28;20016;-58
2024/01/28 00:15:27;;;;;;;30.98;15.85;;;;;;;;;;5105056;28;20011;-60
2024/01/28 00:17:56;;;;;;;28.08;15.23;;;;;;;;;;5105162;28;20012;-62
2024/01/28 00:20:23;;;;;;;42.47;15.30;;;;;;;;;;5105137;28;20199;-54
2024/01/28 00:22:50;;;;;;;39.55;15.23;;;;;;;;;;5105141;28;20038;-56
2024/01/28 00:25:17;;;;;;;32.92;14.38;;;;;;;;;;5105019;28;20022;-60
2024/01/28 00:27:43;;;;;;;29.83;14.02;;;;;;;;;;5101200;28;20020;-61
2024/01/28 00:30:10;;;;;;;60.40;16.60;;;;;;;;;;5100078;28;20017;-60
2024/01/28 00:32:37;;;;;;;43.92;15.70;;;;;;;;;;5099849;28;20092;-60
2024/01/28 00:35:04;;;;;;;27.70;13.35;;;;;;;;;;5098767;28;20011;-61
2024/01/28 00:37:30;;;;;;;25.83;14.07;;;;;;;;;;5099436;28;20029;-65
2024/01/28 00:39:57;;;;;;;74.90;18.63;;;;;;;;;;5102277;28;20353;-65
2024/01/28 00:42:23;;;;;;;45.63;14.35;;;;;;;;;;5097050;28;20217;-63
2024/01/28 00:44:50;;;;;;;28.55;13.23;;;;;;;;;;5084615;28;20025;-62
2024/01/28 00:47:16;;;;;;;94.13;17.00;;;;;;;;;;5085157;28;20032;-62
2024/01/28 00:49:43;;;;;;;38.65;14.77;;;;;;;;;;5084693;28;20016;-54
2024/01/28 00:52:09;;;;;;;29.00;12.77;;;;;;;;;;5100123;28;20075;-62
2024/01/28 00:54:37;;;;;;;33.63;13.30;;;;;;;;;;5103995;28;20087;-62
2024/01/28 00:57:03;;;;;;;20.80;11.45;;;;;;;;;;5103587;28;20031;-62
2024/01/28 00:59:30;;;;;;;22.40;12.10;;;;;;;;;;5104569;28;20031;-62
2024/01/28 01:01:57;;;;;;;20.50;11.68;;;;;;;;;;5104526;28;20034;-62
2024/01/28 01:04:24;;;;;;;21.00;11.52;;;;;;;;;;5103991;28;20012;-61
2024/01/28 01:06:50;;;;;;;17.15;10.80;;;;;;;;;;5104795;28;20027;-59
2024/01/28 01:09:17;;;;;;;23.92;11.85;;;;;;;;;;5104447;28;20028;-62
2024/01/28 01:11:44;;;;;;;22.15;11.40;;;;;;;;;;5104904;28;20032;-62
2024/01/28 01:14:10;;;;;;;16.98;10.55;;;;;;;;;;5104470;28;20020;-60
2024/01/28 01:16:37;;;;;;;17.55;11.00;;;;;;;;;;5104673;28;20038;-61
2024/01/28 01:19:03;;;;;;;14.93;11.45;;;;;;;;;;5104362;28;20044;-61
2024/01/28 01:21:30;;;;;;;15.85;11.25;;;;;;;;;;5104660;28;20094;-62
2024/01/28 01:23:56;;;;;;;17.25;11.35;;;;;;;;;;5104208;28;20079;-61
2024/01/28 01:26:23;;;;;;;47.08;14.43;;;;;;;;;;5103926;28;20028;-62
2024/01/28 01:28:50;;;;;;;32.67;13.35;;;;;;;;;;5104421;28;20027;-65
2024/01/28 01:31:16;;;;;;;41.58;13.25;;;;;;;;;;5104150;28;20203;-61
2024/01/28 01:33:43;;;;;;;28.73;12.05;;;;;;;;;;5104313;28;20012;-62
2024/01/28 01:36:10;;;;;;;22.70;11.93;;;;;;;;;;5104392;28;20028;-61
2024/01/28 01:38:37;;;;;;;27.02;12.25;;;;;;;;;;5104039;28;20222;-61
2024/01/28 01:41:03;;;;;;;21.75;10.80;;;;;;;;;;5104264;28;20051;-60
2024/01/28 01:43:30;;;;;;;15.43;11.00;;;;;;;;;;5104192;28;20023;-61
2024/01/28 01:45:57;;;;;;;21.20;11.30;;;;;;;;;;5104097;28;20035;-61
2024/01/28 01:48:23;;;;;;;15.88;11.13;;;;;;;;;;5104194;28;20023;-60
2024/01/28 01:50:50;;;;;;;15.20;10.82;;;;;;;;;;5103669;28;20039;-60
2024/01/28 01:53:17;;;;;;;17.17;10.45;;;;;;;;;;5103781;28;20027;-60
2024/01/28 01:55:44;;;;;;;17.77;9.98;;;;;;;;;;5104238;28;20032;-60
2024/01/28 01:58:11;;;;;;;19.30;10.20;;;;;;;;;;5103950;28;20083;-60
2024/01/28 02:00:38;;;;;;;14.80;10.85;;;;;;;;;;5103801;28;20020;-61
2024/01/28 02:03:05;;;;;;;16.38;11.07;;;;;;;;;;5103831;28;20087;-61
2024/01/28 02:05:32;;;;;;;13.85;10.15;;;;;;;;;;5103989;28;20050;-60
2024/01/28 02:07:58;;;;;;;14.38;10.57;;;;;;;;;;5103700;28;20020;-60
2024/01/28 02:10:25;;;;;;;14.73;10.20;;;;;;;;;;5103999;28;20023;-62
2024/01/28 02:12:52;;;;;;;13.95;9.85;;;;;;;;;;5105316;28;20066;-61
2024/01/28 02:15:21;;;;;;;16.45;10.45;;;;;;;;;;5107721;28;20020;-61
2024/01/28 02:17:47;;;;;;;15.35;9.75;;;;;;;;;;5107862;28;20053;-61
2024/01/28 02:20:14;;;;;;;13.73;10.25;;;;;;;;;;5107678;28;20016;-60
2024/01/28 02:22:40;;;;;;;11.13;9.18;;;;;;;;;;5107714;28;20022;-61
2024/01/28 02:25:07;;;;;;;13.85;9.60;;;;;;;;;;5107733;28;20024;-61
2024/01/28 02:27:35;;;;;;;12.02;9.45;;;;;;;;;;5108196;28;20023;-61
2024/01/28 02:30:02;;;;;;;12.25;9.90;;;;;;;;;;5107801;28;20022;-61
2024/01/28 02:32:28;;;;;;;11.85;9.82;;;;;;;;;;5107938;28;20032;-60
2024/01/28 02:34:57;;;;;;;10.52;9.38;;;;;;;;;;5107666;28;20071;-60
2024/01/28 02:37:24;;;;;;;14.55;9.80;;;;;;;;;;5107275;28;20061;-60
2024/01/28 02:39:50;;;;;;;15.25;9.50;;;;;;;;;;5107529;28;20046;-60
2024/01/28 02:42:17;;;;;;;11.38;9.20;;;;;;;;;;5107932;28;20242;-62
2024/01/28 02:44:44;;;;;;;13.15;9.30;;;;;;;;;;5107319;28;20023;-62
2024/01/28 02:47:10;;;;;;;13.15;10.00;;;;;;;;;;5107759;28;20038;-62
2024/01/28 02:49:37;;;;;;;14.13;9.80;;;;;;;;;;5107558;28;20052;-61
2024/01/28 02:52:04;;;;;;;13.55;9.20;;;;;;;;;;5106922;28;20069;-59
2024/01/28 02:54:30;;;;;;;22.27;10.60;;;;;;;;;;5107162;28;20369;-61
2024/01/28 02:56:57;;;;;;;14.57;10.65;;;;;;;;;;5107547;28;20026;-61
2024/01/28 02:59:24;;;;;;;17.73;10.25;;;;;;;;;;5107142;28;20008;-62
2024/01/28 03:01:51;;;;;;;14.43;10.07;;;;;;;;;;5107232;28;20046;-61
2024/01/28 03:04:17;;;;;;;16.08;10.45;;;;;;;;;;5106978;28;20024;-63
2024/01/28 03:06:44;;;;;;;17.20;10.50;;;;;;;;;;5107304;28;20133;-62
2024/01/28 03:09:11;;;;;;;20.15;10.35;;;;;;;;;;5107117;28;20016;-61
2024/01/28 03:11:38;;;;;;;17.00;10.75;;;;;;;;;;5107207;28;20063;-61
2024/01/28 03:14:06;;;;;;;14.10;9.43;;;;;;;;;;5106914;28;20024;-62
2024/01/28 03:16:33;;;;;;;16.45;10.07;;;;;;;;;;5106968;28;20016;-62
2024/01/28 03:18:59;;;;;;;12.77;9.73;;;;;;;;;;5106726;28;20043;-62
2024/01/28 03:21:26;;;;;;;11.98;9.43;;;;;;;;;;5106710;28;20039;-63
2024/01/28 03:23:52;;;;;;;15.55;10.40;;;;;;;;;;5106606;28;20061;-62
2024/01/28 03:26:19;;;;;;;14.35;11.00;;;;;;;;;;5106867;28;20035;-63
2024/01/28 03:28:46;;;;;;;11.60;10.07;;;;;;;;;;5106655;28;20027;-63
2024/01/28 03:31:13;;;;;;;11.32;9.57;;;;;;;;;;5106546;28;20028;-63
2024/01/28 03:33:39;;;;;;;16.45;9.30;;;;;;;;;;5106476;28;20023;-60
2024/01/28 03:36:07;;;;;;;14.98;8.77;;;;;;;;;;5106615;28;20016;-60
2024/01/28 03:38:33;;;;;;;10.45;9.10;;;;;;;;;;5106425;28;20204;-59
2024/01/28 03:41:00;;;;;;;13.30;9.57;;;;;;;;;;5106513;28;20036;-60
2024/01/28 03:43:26;;;;;;;11.73;9.13;;;;;;;;;;5106253;28;20016;-59
2024/01/28 03:45:53;;;;;;;11.18;8.45;;;;;;;;;;5106207;28;20024;-60
2024/01/28 03:48:19;;;;;;;12.02;9.15;;;;;;;;;;5106318;28;20024;-60
2024/01/28 03:50:47;;;;;;;12.30;9.30;;;;;;;;;;5105894;28;20092;-61
2024/01/28 03:53:13;;;;;;;11.45;8.73;;;;;;;;;;5105953;28;20024;-60
2024/01/28 03:55:40;;;;;;;11.38;8.90;;;;;;;;;;5106214;28;20251;-60
2024/01/28 03:58:06;;;;;;;9.38;7.88;;;;;;;;;;5106044;28;20023;-59
2024/01/28 04:00:33;;;;;;;11.27;8.32;;;;;;;;;;5105803;28;20110;-59
2024/01/28 04:03:01;;;;;;;9.93;8.57;;;;;;;;;;5105819;28;20020;-59
2024/01/28 04:05:27;;;;;;;14.93;8.93;;;;;;;;;;5105682;28;20012;-61
2024/01/28 04:07:54;;;;;;;9.80;8.80;;;;;;;;;;5105617;28;20053;-59
2024/01/28 04:10:21;;;;;;;10.60;8.63;;;;;;;;;;5105665;28;20024;-59
2024/01/28 04:12:47;;;;;;;10.15;8.90;;;;;;;;;;5105659;28;20031;-60
2024/01/28 04:15:14;;;;;;;13.82;8.82;;;;;;;;;;5105701;28;20296;-57
2024/01/28 04:17:41;;;;;;;9.80;8.82;;;;;;;;;;5105586;28;20044;-61
2024/01/28 04:20:08;;;;;;;9.48;8.57;;;;;;;;;;5105497;28;20019;-60
2024/01/28 04:22:35;;;;;;;10.13;8.38;;;;;;;;;;5105947;28;20035;-60
2024/01/28 04:25:02;;;;;;;9.93;8.68;;;;;;;;;;5105337;28;20031;-59
2024/01/28 04:27:28;;;;;;;9.18;8.02;;;;;;;;;;5105911;28;20074;-61
2024/01/28 04:29:55;;;;;;;9.23;8.20;;;;;;;;;;5105293;28;20041;-61
2024/01/28 04:32:22;;;;;;;9.10;8.05;;;;;;;;;;5105569;28;20068;-60
2024/01/28 04:34:48;;;;;;;10.85;8.73;;;;;;;;;;5104866;28;20023;-59
2024/01/28 04:37:15;;;;;;;9.60;8.27;;;;;;;;;;5105239;28;20036;-62
2024/01/28 04:39:42;;;;;;;11.55;8.35;;;;;;;;;;5104984;28;20016;-61
2024/01/28 04:42:09;;;;;;;9.38;8.48;;;;;;;;;;5105550;28;20299;-61
2024/01/28 04:44:35;;;;;;;10.48;8.73;;;;;;;;;;5105119;28;20032;-60
2024/01/28 04:47:02;;;;;;;10.52;9.00;;;;;;;;;;5105275;28;20019;-60
2024/01/28 04:49:29;;;;;;;10.60;8.65;;;;;;;;;;5105067;28;20028;-61
2024/01/28 04:51:56;;;;;;;11.05;8.88;;;;;;;;;;5104671;28;20048;-61
2024/01/28 04:54:23;;;;;;;9.77;8.25;;;;;;;;;;5104824;28;20211;-59
2024/01/28 04:56:50;;;;;;;11.55;9.40;;;;;;;;;;5105118;28;20030;-60
2024/01/28 04:59:16;;;;;;;10.10;8.80;;;;;;;;;;5104752;28;20356;-60
2024/01/28 05:01:43;;;;;;;9.75;8.75;;;;;;;;;;5104956;28;20032;-59
2024/01/28 05:04:09;;;;;;;12.30;10.10;;;;;;;;;;5104728;28;20250;-60
2024/01/28 05:06:36;;;;;;;12.73;10.38;;;;;;;;;;5105034;28;20035;-60
2024/01/28 05:09:08;;;;;;;13.43;10.77;;;;;;;;;;5104454;28;20020;-59
2024/01/28 05:11:35;;;;;;;12.10;10.32;;;;;;;;;;5104742;28;20219;-60
2024/01/28 05:14:02;;;;;;;10.68;9.68;;;;;;;;;;5104527;28;20065;-59
2024/01/28 05:16:29;;;;;;;27.38;10.77;;;;;;;;;;5099386;28;20264;-58
2024/01/28 05:18:56;;;;;;;43.45;11.52;;;;;;;;;;5102427;28;20210;-60
2024/01/28 05:21:26;;;;;;;25.00;10.80;;;;;;;;;;5103396;28;20024;-62
2024/01/28 05:23:52;;;;;;;18.83;10.25;;;;;;;;;;5104270;28;20019;-60
2024/01/28 05:26:19;;;;;;;19.23;9.45;;;;;;;;;;5104506;28;20091;-61
2024/01/28 05:28:45;;;;;;;17.00;9.23;;;;;;;;;;5104501;28;20023;-60
2024/01/28 05:31:12;;;;;;;16.17;9.05;;;;;;;;;;5104257;28;20091;-60
2024/01/28 05:33:40;;;;;;;15.80;8.70;;;;;;;;;;5104435;28;20053;-59
2024/01/28 05:36:16;;;;;;;10.18;8.43;;;;;;;;;;5104367;28;20028;-61
2024/01/28 05:38:44;;;;;;;13.35;9.20;;;;;;;;;;5103136;28;20073;-59
2024/01/28 05:41:11;;;;;;;15.10;8.90;;;;;;;;;;5104114;28;20308;-60
2024/01/28 05:43:37;;;;;;;11.73;8.60;;;;;;;;;;5104147;28;20020;-59
2024/01/28 05:46:04;;;;;;;10.57;9.32;;;;;;;;;;5104171;28;20112;-59
2024/01/28 05:48:31;;;;;;;12.32;8.98;;;;;;;;;;5104152;28;20316;-59
2024/01/28 05:50:58;;;;;;;12.63;8.80;;;;;;;;;;5103664;28;20048;-59
2024/01/28 05:53:25;;;;;;;10.90;8.25;;;;;;;;;;5103968;28;20052;-60
2024/01/28 05:55:52;;;;;;;10.98;8.25;;;;;;;;;;5104155;28;20350;-59
2024/01/28 05:58:20;;;;;;;11.02;8.65;;;;;;;;;;5104051;28;20016;-59
2024/01/28 06:00:47;;;;;;;12.60;8.48;;;;;;;;;;5103981;28;20087;-59
2024/01/28 06:03:14;;;;;;;11.43;8.43;;;;;;;;;;5103942;28;20323;-58
2024/01/28 06:05:41;;;;;;;11.40;9.05;;;;;;;;;;5103970;28;20024;-59
2024/01/28 06:08:08;;;;;;;11.02;7.88;;;;;;;;;;5103783;28;20024;-58
2024/01/28 06:10:34;;;;;;;9.70;8.40;;;;;;;;;;5103867;28;20020;-57
2024/01/28 06:13:01;;;;;;;10.52;8.50;;;;;;;;;;5103933;28;20031;-59
2024/01/28 06:15:28;;;;;;;8.82;7.97;;;;;;;;;;5103696;28;20019;-62
2024/01/28 06:17:55;;;;;;;9.00;8.00;;;;;;;;;;5103825;28;20020;-59
2024/01/28 06:20:21;;;;;;;9.32;8.40;;;;;;;;;;5103733;28;20312;-60
2024/01/28 06:22:48;;;;;;;9.18;8.15;;;;;;;;;;5103852;28;20323;-59
2024/01/28 06:25:14;;;;;;;9.25;7.72;;;;;;;;;;5103663;28;20046;-58
2024/01/28 06:27:41;;;;;;;10.88;7.78;;;;;;;;;;5103829;28;20194;-59
2024/01/28 06:30:08;;;;;;;10.88;7.78;;;;;;;;;;5103607;28;20043;-58
2024/01/28 06:32:36;;;;;;;8.90;8.00;;;;;;;;;;5103803;28;20030;-58
2024/01/28 06:35:03;;;;;;;10.32;7.78;;;;;;;;;;5103657;28;20047;-58
2024/01/28 06:37:29;;;;;;;9.10;7.80;;;;;;;;;;5103577;28;20024;-59
2024/01/28 06:39:56;;;;;;;11.23;8.27;;;;;;;;;;5103537;28;20020;-59
2024/01/28 06:42:24;;;;;;;10.50;7.60;;;;;;;;;;5104044;28;20020;-59
2024/01/28 06:44:51;;;;;;;9.07;7.65;;;;;;;;;;5103490;28;20055;-58
2024/01/28 06:47:18;;;;;;;9.02;8.07;;;;;;;;;;5103958;28;20028;-58
2024/01/28 06:49:45;;;;;;;8.98;8.07;;;;;;;;;;5103599;28;20042;-60
2024/01/28 06:52:12;;;;;;;9.95;8.38;;;;;;;;;;5103019;28;20344;-57
2024/01/28 06:54:41;;;;;;;8.60;7.72;;;;;;;;;;5103586;28;20020;-59
2024/01/28 06:57:08;;;;;;;8.93;8.07;;;;;;;;;;5103865;28;20106;-59
2024/01/28 06:59:35;;;;;;;9.85;8.30;;;;;;;;;;5105459;28;20016;-60
2024/01/28 07:02:02;;;;;;;8.88;7.97;;;;;;;;;;5107533;28;20318;-61
2024/01/28 07:04:28;;;;;;;9.13;8.00;;;;;;;;;;5107033;28;20088;-58
2024/01/28 07:06:55;;;;;;;9.45;8.30;;;;;;;;;;5107275;28;20035;-57
2024/01/28 07:09:22;;;;;;;9.10;8.20;;;;;;;;;;5106987;28;20016;-61
2024/01/28 07:11:49;;;;;;;14.30;8.65;;;;;;;;;;5107208;28;20200;-60
2024/01/28 07:14:17;;;;;;;9.38;8.50;;;;;;;;;;5107054;28;20015;-59
2024/01/28 07:16:43;;;;;;;10.77;8.75;;;;;;;;;;5107125;28;20024;-58
2024/01/28 07:19:10;;;;;;;9.55;8.35;;;;;;;;;;5106886;28;20019;-59
2024/01/28 07:21:37;;;;;;;10.95;8.38;;;;;;;;;;5106491;28;20028;-59
2024/01/28 07:24:03;;;;;;;9.98;8.38;;;;;;;;;;5106743;28;20027;-61
2024/01/28 07:26:30;;;;;;;9.98;8.52;;;;;;;;;;5106902;28;20039;-60
2024/01/28 07:28:57;;;;;;;9.90;8.15;;;;;;;;;;5106430;28;20019;-59
2024/01/28 07:31:23;;;;;;;10.15;7.97;;;;;;;;;;5106832;28;20024;-59
2024/01/28 07:33:50;;;;;;;10.05;8.27;;;;;;;;;;5106611;28;20059;-59
2024/01/28 07:36:16;;;;;;;9.93;8.57;;;;;;;;;;5106580;28;20020;-58
2024/01/28 07:38:44;;;;;;;9.35;8.45;;;;;;;;;;5106518;28;20065;-59
2024/01/28 07:41:19;;;;;;;10.05;8.48;;;;;;;;;;5106544;28;20035;-60
2024/01/28 07:43:45;;;;;;;9.82;8.15;;;;;;;;;;5106187;28;20088;-59
2024/01/28 07:46:12;;;;;;;12.55;8.75;;;;;;;;;;5106516;28;20031;-59
2024/01/28 07:48:39;;;;;;;8.70;7.85;;;;;;;;;;5106258;28;20083;-59
2024/01/28 07:51:06;;;;;;;9.23;8.00;;;;;;;;;;5105698;28;20240;-58
2024/01/28 07:53:32;;;;;;;10.73;8.65;;;;;;;;;;5106127;28;20039;-61
2024/01/28 07:56:00;;;;;;;12.45;8.27;;;;;;;;;;5106274;28;20040;-59
2024/01/28 07:58:27;;;;;;;11.35;8.18;;;;;;;;;;5105863;28;20075;-59
2024/01/28 08:00:54;;;;;;;11.05;8.48;;;;;;;;;;5106168;28;20016;-57
2024/01/28 08:03:21;;;;;;;9.25;8.02;;;;;;;;;;5106035;28;20019;-59
2024/01/28 08:05:48;;;;;;;10.27;8.10;;;;;;;;;;5105665;28;20095;-60
2024/01/28 08:08:14;;;;;;;10.48;7.97;;;;;;;;;;5105830;28;20016;-60
2024/01/28 08:10:41;;;;;;;9.60;8.25;;;;;;;;;;5105742;28;20055;-60
2024/01/28 08:13:08;;;;;;;10.65;8.02;;;;;;;;;;5105534;28;20223;-57
2024/01/28 08:15:36;;;;;;;11.00;8.60;;;;;;;;;;5105774;28;20027;-60
2024/01/28 08:18:02;;;;;;;9.95;8.35;;;;;;;;;;5105655;28;20304;-60
2024/01/28 08:20:29;;;;;;;9.95;7.68;;;;;;;;;;5105468;28;20024;-58
2024/01/28 08:22:55;;;;;;;9.73;8.20;;;;;;;;;;5105502;28;20039;-59
2024/01/28 08:25:23;;;;;;;9.60;8.52;;;;;;;;;;5105612;28;20053;-59
2024/01/28 08:27:50;;;;;;;9.63;8.27;;;;;;;;;;5105427;28;20307;-58
2024/01/28 08:30:22;;;;;;;10.00;8.85;;;;;;;;;;5105486;28;20031;-60
2024/01/28 08:32:49;;;;;;;9.50;8.57;;;;;;;;;;5105293;28;20122;-59
2024/01/28 08:35:16;;;;;;;12.20;8.55;;;;;;;;;;5105155;28;20062;-59
2024/01/28 08:37:42;;;;;;;10.07;9.07;;;;;;;;;;5105254;28;20016;-60
2024/01/28 08:40:09;;;;;;;10.98;9.63;;;;;;;;;;5105251;28;20020;-59
2024/01/28 08:42:36;;;;;;;11.30;10.10;;;;;;;;;;5105068;28;20035;-59
2024/01/28 08:45:02;;;;;;;12.40;11.02;;;;;;;;;;5105140;28;20016;-60
2024/01/28 08:47:29;;;;;;;14.68;11.93;;;;;;;;;;5105608;28;20032;-60
2024/01/28 08:49:56;;;;;;;13.45;11.30;;;;;;;;;;5105193;28;20303;-58
2024/01/28 08:52:23;;;;;;;14.85;11.85;;;;;;;;;;5104814;28;20072;-59
2024/01/28 08:54:50;;;;;;;15.02;12.02;;;;;;;;;;5105025;28;20212;-60
2024/01/28 08:57:18;;;;;;;13.48;11.55;;;;;;;;;;5105354;28;20335;-57
2024/01/28 08:59:45;;;;;;;13.75;12.18;;;;;;;;;;5104820;28;20031;-60
2024/01/28 09:02:11;;;;;;;16.17;12.68;;;;;;;;;;5105179;28;20031;-60
2024/01/28 09:04:38;;;;;;;15.07;12.48;;;;;;;;;;5104787;28;20016;-60
2024/01/28 09:07:05;;;;;;;15.73;12.88;;;;;;;;;;5105090;28;20032;-60
2024/01/28 09:09:31;;;;;;;15.50;12.48;;;;;;;;;;5104804;28;20040;-62
2024/01/28 09:11:58;;;;;;;15.75;12.80;;;;;;;;;;5104968;28;20032;-58
2024/01/28 09:14:24;;;;;;;16.40;12.55;;;;;;;;;;5104454;28;20016;-60
2024/01/28 09:16:51;;;;;;;15.52;12.75;;;;;;;;;;5104495;28;20030;-59
2024/01/28 09:19:18;;;;;;;13.00;11.60;;;;;;;;;;5104544;28;20020;-60
2024/01/28 09:21:44;;;;;;;13.73;11.75;;;;;;;;;;5104232;28;20356;-62
2024/01/28 09:24:11;;;;;;;12.18;10.93;;;;;;;;;;5104441;28;20028;-59
2024/01/28 09:26:37;;;;;;;13.85;11.10;;;;;;;;;;5104709;28;20027;-60
2024/01/28 09:29:04;;;;;;;12.57;10.57;;;;;;;;;;5104233;28;20024;-59
2024/01/28 09:31:31;;;;;;;13.23;10.70;;;;;;;;;;5104639;28;20048;-60
2024/01/28 09:33:57;;;;;;;12.77;10.35;;;;;;;;;;5104371;28;20020;-59
2024/01/28 09:36:24;;;;;;;11.57;10.15;;;;;;;;;;5104068;28;20024;-59
2024/01/28 09:38:50;;;;;;;11.95;10.05;;;;;;;;;;5104271;28;20016;-57
2024/01/28 09:41:31;;;;;;;11.98;9.65;;;;;;;;;;5104446;28;20027;-60
2024/01/28 09:43:57;;;;;;;11.75;10.00;;;;;;;;;;5104145;28;20260;-59
2024/01/28 09:46:25;;;;;;;12.82;9.57;;;;;;;;;;5104456;28;20091;-60
2024/01/28 09:48:51;;;;;;;14.10;9.63;;;;;;;;;;5104197;28;20058;-60
2024/01/28 09:51:20;;;;;;;11.45;9.50;;;;;;;;;;5103715;28;20035;-60
2024/01/28 09:53:47;;;;;;;13.10;9.15;;;;;;;;;;5104026;28;20021;-60
2024/01/28 09:56:16;;;;;;;12.32;8.85;;;;;;;;;;5104367;28;20299;-59
2024/01/28 09:58:42;;;;;;;13.18;9.20;;;;;;;;;;5103982;28;20604;-59
2024/01/28 10:01:11;;;;;;;15.27;9.07;;;;;;;;;;5104077;28;20024;-59
2024/01/28 10:03:37;;;;;;;16.42;9.45;;;;;;;;;;5103791;28;20061;-58
2024/01/28 10:06:04;;;;;;;11.80;9.10;;;;;;;;;;5104096;28;20061;-59
2024/01/28 10:08:31;;;;;;;11.00;8.90;;;;;;;;;;5103861;28;20016;-57
2024/01/28 10:11:00;;;;;;;10.18;9.07;;;;;;;;;;5103929;28;20028;-58
2024/01/28 10:13:32;;;;;;;10.10;9.10;;;;;;;;;;5104029;28;20024;-61
2024/01/28 10:15:59;;;;;;;12.00;9.25;;;;;;;;;;5103997;28;20020;-59
2024/01/28 10:18:26;;;;;;;11.18;9.65;;;;;;;;;;5103719;28;20015;-60
2024/01/28 10:20:52;;;;;;;10.95;9.65;;;;;;;;;;5103977;28;20083;-60
2024/01/28 10:23:19;;;;;;;10.85;9.75;;;;;;;;;;5103938;28;20012;-60
2024/01/28 10:25:46;;;;;;;12.05;9.63;;;;;;;;;;5103700;28;20028;-60
2024/01/28 10:28:13;;;;;;;13.52;9.77;;;;;;;;;;5103776;28;20065;-60
2024/01/28 10:30:39;;;;;;;13.48;10.00;;;;;;;;;;5103870;28;20020;-61
2024/01/28 10:33:08;;;;;;;13.32;11.05;;;;;;;;;;5103606;28;20027;-58
2024/01/28 10:35:34;;;;;;;12.38;10.70;;;;;;;;;;5107490;28;20380;-58
2024/01/28 10:38:01;;;;;;;11.73;10.52;;;;;;;;;;5107651;28;20020;-59
2024/01/28 10:40:35;;;;;;;12.25;10.52;;;;;;;;;;5107466;28;20016;-59
2024/01/28 10:43:03;;;;;;;12.45;11.02;;;;;;;;;;5107537;28;20117;-57
2024/01/28 10:45:31;;;;;;;16.95;11.35;;;;;;;;;;5107538;28;20083;-59
2024/01/28 10:48:01;;;;;;;13.10;11.70;;;;;;;;;;5107279;28;20024;-59
2024/01/28 10:50:32;;;;;;;12.60;10.95;;;;;;;;;;5107199;28;20016;-60
2024/01/28 10:53:00;;;;;;;16.45;11.88;;;;;;;;;;5107137;28;20033;-58
2024/01/28 10:55:28;;;;;;;11.85;10.60;;;;;;;;;;5107095;28;20062;-59
2024/01/28 10:57:55;;;;;;;13.52;11.57;;;;;;;;;;5107252;28;20012;-61
2024/01/28 11:00:22;;;;;;;15.00;11.77;;;;;;;;;;5107244;28;20079;-60
2024/01/28 11:02:50;;;;;;;13.65;11.15;;;;;;;;;;5107018;28;20023;-61
2024/01/28 11:05:17;;;;;;;13.27;10.55;;;;;;;;;;5107154;28;20264;-60
2024/01/28 11:07:44;;;;;;;19.50;10.15;;;;;;;;;;5107041;28;20215;-60
2024/01/28 11:10:11;;;;;;;11.85;10.57;;;;;;;;;;5106781;28;20020;-59
2024/01/28 11:12:39;;;;;;;13.25;10.88;;;;;;;;;;5106809;28;20254;-60
2024/01/28 11:15:06;;;;;;;14.02;10.48;;;;;;;;;;5106848;28;20204;-60
2024/01/28 11:17:33;;;;;;;17.80;10.15;;;;;;;;;;5106597;28;20020;-61
2024/01/28 11:20:07;;;;;;;15.32;10.88;;;;;;;;;;5106810;28;20019;-60
2024/01/28 11:22:47;;;;;;;14.98;10.23;;;;;;;;;;5106515;28;20073;-58
2024/01/28 11:25:16;;;;;;;12.32;10.82;;;;;;;;;;5106493;28;20028;-59
2024/01/28 11:27:43;;;;;;;13.65;10.02;;;;;;;;;;5106694;28;20020;-61
2024/01/28 11:30:11;;;;;;;15.45;10.50;;;;;;;;;;5106735;28;20035;-60
2024/01/28 11:32:38;;;;;;;16.85;11.13;;;;;;;;;;5106440;28;20030;-60
2024/01/28 11:35:05;;;;;;;15.55;11.20;;;;;;;;;;5106476;28;20031;-61
2024/01/28 11:37:33;;;;;;;19.25;10.65;;;;;;;;;;5106839;28;20020;-59
2024/01/28 11:40:05;;;;;;;14.32;11.02;;;;;;;;;;5106353;28;20016;-60
2024/01/28 11:42:32;;;;;;;16.58;11.18;;;;;;;;;;5106797;28;20087;-60
2024/01/28 11:45:00;;;;;;;17.75;12.80;;;;;;;;;;5105981;28;20066;-59
2024/01/28 11:47:26;;;;;;;18.23;12.13;;;;;;;;;;5106745;28;20024;-59
2024/01/28 11:49:53;;;;;;;15.70;11.82;;;;;;;;;;5106133;28;20052;-58
2024/01/28 11:52:19;;;;;;;18.13;13.07;;;;;;;;;;5105891;28;20039;-57
2024/01/28 11:54:47;;;;;;;21.58;12.82;;;;;;;;;;5106146;28;20021;-57
2024/01/28 11:57:14;;;;;;;17.08;12.40;;;;;;;;;;5106392;28;20024;-58
2024/01/28 11:59:40;;;;;;;16.00;11.48;;;;;;;;;;5105921;28;20088;-57
2024/01/28 12:02:07;;;;;;;20.35;12.55;;;;;;;;;;5106339;28;20020;-59
2024/01/28 12:04:34;;;;;;;16.52;11.10;;;;;;;;;;5105994;28;20031;-58
2024/01/28 12:07:01;;;;;;;19.30;11.68;;;;;;;;;;5105614;28;20020;-58
2024/01/28 12:09:29;;;;;;;19.48;11.55;;;;;;;;;;5105818;28;20311;-57
2024/01/28 12:11:56;;;;;;;16.42;11.68;;;;;;;;;;5106022;28;20300;-58
2024/01/28 12:14:23;;;;;;;20.45;12.05;;;;;;;;;;5105611;28;20020;-59
2024/01/28 12:16:49;;;;;;;17.27;11.60;;;;;;;;;;5105660;28;20023;-60
2024/01/28 12:19:16;;;;;;;21.90;11.32;;;;;;;;;;5100084;28;20024;-61
2024/01/28 12:21:42;;;;;;;30.70;12.02;;;;;;;;;;5094405;28;20059;-58
2024/01/28 12:24:10;;;;;;;24.25;11.45;;;;;;;;;;5085385;28;20020;-62
2024/01/28 12:26:36;;;;;;;14.20;11.07;;;;;;;;;;5085607;28;20032;-60
2024/01/28 12:29:03;;;;;;;19.92;11.23;;;;;;;;;;5085132;28;20079;-59
2024/01/28 12:31:32;;;;;;;16.83;10.90;;;;;;;;;;5085296;28;20052;-62
2024/01/28 12:33:59;;;;;;;21.40;11.85;;;;;;;;;;5085240;28;20362;-60
2024/01/28 12:36:25;;;;;;;21.45;11.73;;;;;;;;;;5085173;28;20024;-60
2024/01/28 12:38:52;;;;;;;19.35;11.15;;;;;;;;;;5085019;28;20024;-59
2024/01/28 12:41:19;;;;;;;17.42;10.60;;;;;;;;;;5085205;28;20070;-60
2024/01/28 12:43:48;;;;;;;12.23;10.20;;;;;;;;;;5084791;28;20020;-60
2024/01/28 12:46:15;;;;;;;14.30;9.00;;;;;;;;;;5085088;28;20036;-61
2024/01/28 12:48:41;;;;;;;15.27;10.27;;;;;;;;;;5084901;28;20335;-61
2024/01/28 12:51:08;;;;;;;16.05;9.52;;;;;;;;;;5084359;28;20134;-60
2024/01/28 12:53:34;;;;;;;17.85;9.48;;;;;;;;;;5084840;28;20069;-61
2024/01/28 12:56:01;;;;;;;14.52;8.88;;;;;;;;;;5084340;28;20320;-60
2024/01/28 12:58:27;;;;;;;15.73;9.23;;;;;;;;;;5084340;28;20016;-59
2024/01/28 13:00:54;;;;;;;12.38;9.20;;;;;;;;;;5084760;28;20046;-59
2024/01/28 13:03:21;;;;;;;12.20;8.65;;;;;;;;;;5084677;28;20208;-61
2024/01/28 13:05:47;;;;;;;11.27;9.13;;;;;;;;;;5084490;28;20304;-61
2024/01/28 13:08:14;;;;;;;10.20;9.07;;;;;;;;;;5084423;28;20189;-61
2024/01/28 13:10:40;;;;;;;20.13;9.38;;;;;;;;;;5084565;28;20051;-62
2024/01/28 13:13:07;;;;;;;25.08;10.07;;;;;;;;;;5084169;28;20020;-60
2024/01/28 13:15:33;;;;;;;18.13;10.30;;;;;;;;;;5084493;28;20028;-58
2024/01/28 13:18:00;;;;;;;22.23;10.90;;;;;;;;;;5084352;28;20051;-58
2024/01/28 13:20:27;;;;;;;14.18;10.25;;;;;;;;;;5084195;28;20016;-59
2024/01/28 13:22:53;;;;;;;14.35;10.50;;;;;;;;;;5084212;28;20028;-58
2024/01/28 13:25:21;;;;;;;16.15;10.88;;;;;;;;;;5084190;28;20230;-59
2024/01/28 13:27:47;;;;;;;14.82;11.13;;;;;;;;;;5084239;28;20020;-59
2024/01/28 13:30:14;;;;;;;16.17;10.00;;;;;;;;;;5084101;28;20028;-58
2024/01/28 13:32:42;;;;;;;17.60;10.85;;;;;;;;;;5084041;28;20316;-59
2024/01/28 13:35:09;;;;;;;17.23;10.98;;;;;;;;;;5097689;28;20384;-60
2024/01/28 13:37:37;;;;;;;17.60;11.43;;;;;;;;;;5097735;28;20336;-59
2024/01/28 13:40:03;;;;;;;18.90;11.15;;;;;;;;;;5101537;28;20016;-61
2024/01/28 13:42:30;;;;;;;20.83;11.55;;;;;;;;;;5104219;28;20087;-59
2024/01/28 13:44:58;;;;;;;14.82;11.23;;;;;;;;;;5104221;28;20063;-60
2024/01/28 13:47:24;;;;;;;16.33;11.65;;;;;;;;;;5104550;28;20312;-58
2024/01/28 13:49:51;;;;;;;18.35;11.15;;;;;;;;;;5104013;28;20291;-64
2024/01/28 13:52:18;;;;;;;22.08;11.68;;;;;;;;;;5103785;28;20044;-60
2024/01/28 13:54:44;;;;;;;20.45;10.98;;;;;;;;;;5104175;28;20024;-58
2024/01/28 13:57:11;;;;;;;18.27;10.90;;;;;;;;;;5103987;28;20149;-61
2024/01/28 13:59:38;;;;;;;23.58;11.23;;;;;;;;;;5102848;28;20020;-57
2024/01/28 14:02:05;;;;;;;18.00;10.35;;;;;;;;;;5103744;28;20207;-58
2024/01/28 14:04:32;;;;;;;18.60;10.13;;;;;;;;;;5101368;28;20219;-61
2024/01/28 14:06:58;;;;;;;16.92;10.88;;;;;;;;;;5101887;28;20028;-61
2024/01/28 14:09:25;;;;;;;17.92;10.35;;;;;;;;;;5106682;28;20050;-61
2024/01/28 14:11:51;;;;;;;19.15;9.80;;;;;;;;;;5107331;28;20126;-62
2024/01/28 14:14:18;;;;;;;17.75;10.35;;;;;;;;;;5107961;28;20011;-60
2024/01/28 14:16:45;;;;;;;23.55;10.25;;;;;;;;;;5108254;28;20078;-60
2024/01/28 14:19:11;;;;;;;14.43;8.82;;;;;;;;;;5107856;28;20204;-60
2024/01/28 14:21:38;;;;;;;16.88;9.82;;;;;;;;;;5108168;28;20028;-60
2024/01/28 14:24:05;;;;;;;20.65;10.30;;;;;;;;;;5107931;28;20027;-60